createdAt,value
2024-01-09T00:00:08.388Z,0.51
2024-01-09T00:01:08.391Z,0.50
2024-01-09T00:02:08.425Z,0.51
2024-01-09T00:03:08.428Z,0.52
2024-01-09T00:04:08.395Z,0.52
2024-01-09T00:05:08.390Z,0.52
2024-01-09T00:06:08.489Z,0.51
2024-01-09T00:07:08.375Z,0.52
2024-01-09T00:08:08.373Z,0.53
2024-01-09T00:09:08.375Z,0.51
2024-01-09T00:10:08.340Z,0.52
2024-01-09T00:11:08.467Z,0.51
2024-01-09T00:12:08.368Z,0.52
2024-01-09T00:13:08.389Z,0.53
2024-01-09T00:14:08.402Z,0.52
2024-01-09T00:15:08.454Z,0.53
2024-01-09T00:16:08.486Z,0.52
2024-01-09T00:17:08.495Z,0.52
2024-01-09T00:18:08.495Z,0.52
2024-01-09T00:19:08.592Z,0.51
2024-01-09T00:20:08.535Z,0.51
2024-01-09T00:21:08.497Z,0.50
2024-01-09T00:22:08.504Z,0.50
2024-01-09T00:23:08.547Z,0.52
2024-01-09T00:24:08.572Z,0.51
2024-01-09T00:25:08.540Z,0.51
2024-01-09T00:26:08.593Z,0.52
2024-01-09T00:27:08.565Z,0.50
2024-01-09T00:28:08.616Z,0.51
2024-01-09T00:29:08.654Z,0.52
2024-01-09T00:30:08.693Z,0.50
2024-01-09T00:31:08.762Z,0.52
2024-01-09T00:32:09.973Z,0.52
2024-01-09T00:33:08.858Z,0.51
2024-01-09T00:34:08.760Z,0.51
2024-01-09T00:35:08.700Z,0.52
2024-01-09T00:36:08.709Z,0.52
2024-01-09T00:37:08.721Z,0.50
2024-01-09T00:38:08.796Z,0.51
2024-01-09T00:39:08.762Z,0.53
2024-01-09T00:40:08.766Z,0.52
2024-01-09T00:41:08.852Z,0.51
2024-01-09T00:42:08.769Z,0.52
2024-01-09T00:43:08.831Z,0.52
2024-01-09T00:44:08.861Z,0.51
2024-01-09T00:45:08.828Z,0.51
2024-01-09T00:46:08.854Z,0.51
2024-01-09T00:47:08.974Z,0.51
2024-01-09T00:48:09.147Z,0.51
2024-01-09T00:49:08.976Z,0.52
2024-01-09T00:50:08.993Z,0.51
2024-01-09T00:51:08.948Z,0.51
2024-01-09T00:52:08.936Z,0.51
2024-01-09T00:53:09.048Z,0.51
2024-01-09T00:54:09.005Z,0.52
2024-01-09T00:55:08.993Z,0.52
2024-01-09T00:56:09.084Z,0.51
2024-01-09T00:57:09.029Z,0.51
2024-01-09T00:58:09.015Z,0.51
2024-01-09T00:59:09.080Z,0.51
2024-01-09T01:00:09.049Z,0.50
2024-01-09T01:01:09.090Z,0.51
2024-01-09T01:02:09.110Z,0.50
2024-01-09T01:03:09.077Z,0.50
2024-01-09T01:04:09.130Z,0.50
2024-01-09T01:05:09.265Z,0.50
2024-01-09T01:06:09.171Z,0.51
2024-01-09T01:07:09.155Z,0.51
2024-01-09T01:08:09.180Z,0.51
2024-01-09T01:09:09.139Z,0.51
2024-01-09T01:10:09.201Z,0.51
2024-01-09T01:11:09.239Z,0.51
2024-01-09T01:12:09.181Z,0.52
2024-01-09T01:13:09.222Z,0.50
2024-01-09T01:14:09.255Z,0.50
2024-01-09T01:15:09.231Z,0.51
2024-01-09T01:16:09.237Z,0.52
2024-01-09T01:17:09.267Z,0.51
2024-01-09T01:18:09.393Z,0.51
2024-01-09T01:19:09.298Z,0.51
2024-01-09T01:20:09.470Z,0.51
2024-01-09T01:21:09.319Z,0.51
2024-01-09T01:22:09.319Z,0.51
2024-01-09T01:23:09.358Z,0.50
2024-01-09T01:24:09.366Z,0.52
2024-01-09T01:25:09.356Z,0.51
2024-01-09T01:26:09.408Z,0.50
2024-01-09T01:27:09.405Z,0.51
2024-01-09T01:28:09.395Z,0.52
2024-01-09T01:29:09.521Z,0.51
2024-01-09T01:30:09.527Z,0.52
2024-01-09T01:31:09.612Z,0.51
2024-01-09T01:32:09.502Z,0.53
2024-01-09T01:33:10.428Z,0.52
2024-01-09T01:34:09.580Z,0.52
2024-01-09T01:35:09.569Z,0.51
2024-01-09T01:36:09.557Z,0.51
2024-01-09T01:37:09.552Z,0.52
2024-01-09T01:38:09.612Z,0.52
2024-01-09T01:39:09.601Z,0.51
2024-01-09T01:40:09.627Z,0.51
2024-01-09T01:41:09.651Z,0.51
2024-01-09T01:42:09.636Z,0.51
2024-01-09T01:43:09.658Z,0.52
2024-01-09T01:44:09.654Z,0.51
2024-01-09T01:45:09.682Z,0.52
2024-01-09T01:46:10.282Z,0.52
2024-01-09T01:47:09.791Z,0.52
2024-01-09T01:48:09.873Z,0.52
2024-01-09T01:49:09.802Z,0.52
2024-01-09T01:50:09.850Z,0.51
2024-01-09T01:51:09.785Z,0.52
2024-01-09T01:52:09.809Z,0.52
2024-01-09T01:53:09.852Z,0.52
2024-01-09T01:54:09.844Z,0.51
2024-01-09T01:55:09.883Z,0.51
2024-01-09T01:56:09.966Z,0.52
2024-01-09T01:57:09.915Z,0.52
2024-01-09T01:58:09.926Z,0.50
2024-01-09T01:59:09.938Z,0.52
2024-01-09T02:00:09.921Z,0.51
2024-01-09T02:01:10.061Z,0.52
2024-01-09T02:02:10.032Z,0.52
2024-01-09T02:03:10.005Z,0.51
2024-01-09T02:04:10.095Z,0.51
2024-01-09T02:05:10.140Z,0.51
2024-01-09T02:06:10.156Z,0.51
2024-01-09T02:07:10.094Z,0.51
2024-01-09T02:08:10.117Z,0.51
2024-01-09T02:09:10.150Z,0.51
2024-01-09T02:10:10.138Z,0.51
2024-01-09T02:11:10.228Z,0.52
2024-01-09T02:12:10.168Z,0.51
2024-01-09T02:13:10.222Z,0.51
2024-01-09T02:14:10.257Z,0.51
2024-01-09T02:15:10.245Z,0.51
2024-01-09T02:16:10.271Z,0.52
2024-01-09T02:17:10.361Z,0.52
2024-01-09T02:18:10.389Z,0.51
2024-01-09T02:19:10.351Z,0.51
2024-01-09T02:20:10.372Z,0.50
2024-01-09T02:21:10.374Z,0.50
2024-01-09T02:22:10.374Z,0.51
2024-01-09T02:23:10.416Z,0.52
2024-01-09T02:24:10.435Z,0.51
2024-01-09T02:25:10.466Z,0.51
2024-01-09T02:26:18.067Z,0.51
2024-01-09T02:27:11.581Z,0.51
2024-01-09T02:28:10.549Z,0.51
2024-01-09T02:29:10.515Z,0.51
2024-01-09T02:30:10.548Z,0.50
2024-01-09T02:31:10.511Z,0.52
2024-01-09T02:32:10.558Z,0.50
2024-01-09T02:33:10.688Z,0.51
2024-01-09T02:34:11.554Z,0.51
2024-01-09T02:35:10.516Z,0.52
2024-01-09T02:36:10.493Z,0.52
2024-01-09T02:37:10.490Z,0.51
2024-01-09T02:38:10.541Z,0.50
2024-01-09T02:39:10.482Z,0.51
2024-01-09T02:40:10.511Z,0.51
2024-01-09T02:41:10.554Z,0.52
2024-01-09T02:42:10.503Z,0.52
2024-01-09T02:43:10.488Z,0.53
2024-01-09T02:44:10.509Z,0.51
2024-01-09T02:45:10.497Z,0.51
2024-01-09T02:46:10.510Z,0.51
2024-01-09T02:47:10.485Z,0.52
2024-01-09T02:48:10.556Z,0.53
2024-01-09T02:49:10.552Z,0.51
2024-01-09T02:50:10.538Z,0.51
2024-01-09T02:51:10.541Z,0.52
2024-01-09T02:52:10.529Z,0.52
2024-01-09T02:53:10.537Z,0.52
2024-01-09T02:54:10.544Z,0.50
2024-01-09T02:55:10.536Z,0.51
2024-01-09T02:56:10.598Z,0.51
2024-01-09T02:57:10.644Z,0.52
2024-01-09T02:58:10.630Z,0.51
2024-01-09T02:59:10.732Z,0.52
2024-01-09T03:00:10.698Z,0.52
2024-01-09T03:01:10.773Z,0.51
2024-01-09T03:02:10.866Z,0.51
2024-01-09T03:03:10.889Z,0.51
2024-01-09T03:04:10.798Z,0.52
2024-01-09T03:05:10.999Z,0.52
2024-01-09T03:06:10.987Z,0.51
2024-01-09T03:07:11.104Z,0.51
2024-01-09T03:08:10.970Z,0.51
2024-01-09T03:09:10.912Z,0.52
2024-01-09T03:10:10.991Z,0.51
2024-01-09T03:11:10.997Z,0.52
2024-01-09T03:12:11.021Z,0.52
2024-01-09T03:13:11.076Z,0.52
2024-01-09T03:14:11.116Z,0.52
2024-01-09T03:15:11.159Z,0.52
2024-01-09T03:16:11.161Z,0.52
2024-01-09T03:17:11.235Z,0.51
2024-01-09T03:18:11.316Z,0.53
2024-01-09T03:19:11.285Z,0.51
2024-01-09T03:20:11.377Z,0.51
2024-01-09T03:21:11.290Z,0.52
2024-01-09T03:22:11.300Z,0.52
2024-01-09T03:23:11.359Z,0.51
2024-01-09T03:24:11.350Z,0.52
2024-01-09T03:25:11.410Z,0.53
2024-01-09T03:26:11.449Z,0.51
2024-01-09T03:27:11.472Z,0.51
2024-01-09T03:28:11.504Z,0.51
2024-01-09T03:29:11.525Z,0.52
2024-01-09T03:30:12.963Z,0.51
2024-01-09T03:31:11.573Z,0.52
2024-01-09T03:32:11.624Z,0.51
2024-01-09T03:33:11.891Z,0.51
2024-01-09T03:34:11.734Z,0.52
2024-01-09T03:35:11.720Z,0.50
2024-01-09T03:36:11.730Z,0.52
2024-01-09T03:37:11.753Z,0.50
2024-01-09T03:38:11.791Z,0.52
2024-01-09T03:39:11.817Z,0.51
2024-01-09T03:40:11.884Z,0.51
2024-01-09T03:41:11.888Z,0.50
2024-01-09T03:42:11.873Z,0.50
2024-01-09T03:43:11.919Z,0.50
2024-01-09T03:44:11.982Z,0.51
2024-01-09T03:45:12.005Z,0.51
2024-01-09T03:46:12.010Z,0.51
2024-01-09T03:47:12.052Z,0.52
2024-01-09T03:48:12.098Z,0.51
2024-01-09T03:49:12.106Z,0.51
2024-01-09T03:50:12.181Z,0.50
2024-01-09T03:51:12.123Z,0.51
2024-01-09T03:52:12.222Z,0.51
2024-01-09T03:53:12.207Z,0.51
2024-01-09T03:54:12.251Z,0.51
2024-01-09T03:55:12.274Z,0.52
2024-01-09T03:56:12.325Z,0.50
2024-01-09T03:57:12.368Z,0.51
2024-01-09T03:58:12.393Z,0.51
2024-01-09T03:59:12.416Z,0.52
2024-01-09T04:00:12.408Z,0.52
2024-01-09T04:01:12.467Z,0.51
2024-01-09T04:02:12.546Z,0.50
2024-01-09T04:03:12.572Z,0.50
2024-01-09T04:04:12.544Z,0.52
2024-01-09T04:05:12.637Z,0.51
2024-01-09T04:06:12.694Z,0.51
2024-01-09T04:07:12.641Z,0.52
2024-01-09T04:08:12.792Z,0.51
2024-01-09T04:09:12.716Z,0.52
2024-01-09T04:10:12.750Z,0.50
2024-01-09T04:11:12.792Z,0.52
2024-01-09T04:12:12.802Z,0.52
2024-01-09T04:13:12.817Z,0.51
2024-01-09T04:14:12.911Z,0.51
2024-01-09T04:15:12.868Z,0.50
2024-01-09T04:16:12.880Z,0.53
2024-01-09T04:17:12.952Z,0.51
2024-01-09T04:18:13.109Z,0.51
2024-01-09T04:19:13.084Z,0.51
2024-01-09T04:20:13.091Z,0.51
2024-01-09T04:21:13.036Z,0.50
2024-01-09T04:22:13.070Z,0.51
2024-01-09T04:23:20.302Z,0.50
2024-01-09T04:24:20.255Z,0.50
2024-01-09T04:25:20.288Z,0.50
2024-01-09T04:26:20.301Z,0.50
2024-01-09T04:27:20.291Z,0.50
2024-01-09T04:28:20.262Z,0.51
2024-01-09T04:29:20.302Z,0.50
2024-01-09T04:30:20.334Z,0.51
2024-01-09T04:31:27.492Z,0.50
2024-01-09T04:32:27.590Z,0.50
2024-01-09T04:33:27.643Z,0.50
2024-01-09T04:34:27.516Z,0.50
2024-01-09T04:35:27.488Z,0.50
2024-01-09T04:36:27.491Z,0.50
2024-01-09T04:37:27.524Z,0.50
2024-01-09T04:38:27.531Z,0.52
2024-01-09T04:39:29.166Z,0.52
2024-01-09T04:40:27.496Z,0.51
2024-01-09T04:41:27.506Z,0.51
2024-01-09T04:42:27.489Z,0.51
2024-01-09T04:43:27.524Z,0.51
2024-01-09T04:44:27.591Z,0.51
2024-01-09T04:45:27.552Z,0.51
2024-01-09T04:46:27.503Z,0.51
2024-01-09T04:47:27.558Z,0.51
2024-01-09T04:48:27.685Z,0.51
2024-01-09T04:49:27.501Z,0.51
2024-01-09T04:50:27.589Z,0.50
2024-01-09T04:51:27.512Z,0.52
2024-01-09T04:52:27.531Z,0.51
2024-01-09T04:53:27.566Z,0.50
2024-01-09T04:54:27.510Z,0.50
2024-01-09T04:55:27.514Z,0.50
2024-01-09T04:56:27.535Z,0.52
2024-01-09T04:57:27.507Z,0.51
2024-01-09T04:58:27.544Z,0.51
2024-01-09T04:59:27.569Z,0.51
2024-01-09T05:00:27.546Z,0.52
2024-01-09T05:01:27.535Z,0.51
2024-01-09T05:02:27.576Z,0.52
2024-01-09T05:03:27.653Z,0.51
2024-01-09T05:04:27.650Z,0.51
2024-01-09T05:05:27.825Z,0.53
2024-01-09T05:06:27.764Z,0.51
2024-01-09T05:07:27.764Z,0.52
2024-01-09T05:08:27.808Z,0.51
2024-01-09T05:09:27.830Z,0.51
2024-01-09T05:10:27.844Z,0.51
2024-01-09T05:11:27.970Z,0.52
2024-01-09T05:12:27.903Z,0.51
2024-01-09T05:13:27.923Z,0.52
2024-01-09T05:14:28.029Z,0.51
2024-01-09T05:15:27.991Z,0.51
2024-01-09T05:16:28.028Z,0.51
2024-01-09T05:17:28.154Z,0.52
2024-01-09T05:18:28.225Z,0.51
2024-01-09T05:19:28.194Z,0.51
2024-01-09T05:20:28.186Z,0.52
2024-01-09T05:21:28.180Z,0.53
2024-01-09T05:22:28.218Z,0.51
2024-01-09T05:23:28.294Z,0.53
2024-01-09T05:24:28.301Z,0.51
2024-01-09T05:25:28.352Z,0.53
2024-01-09T05:26:28.367Z,0.51
2024-01-09T05:27:28.380Z,0.52
2024-01-09T05:28:28.455Z,0.51
2024-01-09T05:29:28.528Z,0.52
2024-01-09T05:30:28.552Z,0.51
2024-01-09T05:31:29.351Z,0.51
2024-01-09T05:32:28.597Z,0.50
2024-01-09T05:33:28.716Z,0.51
2024-01-09T05:34:28.654Z,0.52
2024-01-09T05:35:28.706Z,0.52
2024-01-09T05:36:28.686Z,0.52
2024-01-09T05:37:28.742Z,0.51
2024-01-09T05:38:28.781Z,0.51
2024-01-09T05:39:28.813Z,0.52
2024-01-09T05:40:29.637Z,0.51
2024-01-09T05:41:28.906Z,0.51
2024-01-09T05:42:28.898Z,0.52
2024-01-09T05:43:28.952Z,0.51
2024-01-09T05:44:29.043Z,0.51
2024-01-09T05:45:29.639Z,0.51
2024-01-09T05:46:29.048Z,0.52
2024-01-09T05:47:29.122Z,0.51
2024-01-09T05:48:29.314Z,0.52
2024-01-09T05:49:29.133Z,0.52
2024-01-09T05:50:29.248Z,0.51
2024-01-09T05:51:29.193Z,0.51
2024-01-09T05:52:29.216Z,0.51
2024-01-09T05:53:29.295Z,0.52
2024-01-09T05:54:29.270Z,0.52
2024-01-09T05:55:29.289Z,0.51
2024-01-09T05:56:29.309Z,0.52
2024-01-09T05:57:29.353Z,0.51
2024-01-09T05:58:29.361Z,0.52
2024-01-09T05:59:29.434Z,0.52
2024-01-09T06:00:29.410Z,0.51
2024-01-09T06:01:29.411Z,0.53
2024-01-09T06:02:29.466Z,0.52
2024-01-09T06:03:29.468Z,0.52
2024-01-09T06:04:29.456Z,0.51
2024-01-09T06:05:29.588Z,0.52
2024-01-09T06:06:29.563Z,0.52
2024-01-09T06:07:29.512Z,0.52
2024-01-09T06:08:29.539Z,0.52
2024-01-09T06:09:29.541Z,0.52
2024-01-09T06:10:29.555Z,0.51
2024-01-09T06:11:29.595Z,0.52
2024-01-09T06:12:29.539Z,0.51
2024-01-09T06:13:29.569Z,0.51
2024-01-09T06:14:29.637Z,0.51
2024-01-09T06:15:29.612Z,0.52
2024-01-09T06:16:29.598Z,0.52
2024-01-09T06:17:29.715Z,0.51
2024-01-09T06:18:29.720Z,0.52
2024-01-09T06:19:29.690Z,0.52
2024-01-09T06:20:29.687Z,0.52
2024-01-09T06:21:29.669Z,0.52
2024-01-09T06:22:29.646Z,0.52
2024-01-09T06:23:29.748Z,0.51
2024-01-09T06:24:29.692Z,0.52
2024-01-09T06:25:29.734Z,0.52
2024-01-09T06:26:29.709Z,0.52
2024-01-09T06:27:29.698Z,0.50
2024-01-09T06:28:29.698Z,0.52
2024-01-09T06:29:29.758Z,0.52
2024-01-09T06:30:29.754Z,0.52
2024-01-09T06:31:29.745Z,0.52
2024-01-09T06:32:29.905Z,0.52
2024-01-09T06:33:29.853Z,0.52
2024-01-09T06:34:29.875Z,0.52
2024-01-09T06:35:29.892Z,0.53
2024-01-09T06:36:32.665Z,0.53
2024-01-09T06:37:29.817Z,0.53
2024-01-09T06:38:29.858Z,0.53
2024-01-09T06:39:29.787Z,0.53
2024-01-09T06:40:29.843Z,0.52
2024-01-09T06:41:29.852Z,0.52
2024-01-09T06:42:29.831Z,0.53
2024-01-09T06:43:29.829Z,0.53
2024-01-09T06:44:29.825Z,0.53
2024-01-09T06:45:29.802Z,0.54
2024-01-09T06:46:29.820Z,0.54
2024-01-09T06:47:29.898Z,0.55
2024-01-09T06:48:29.991Z,0.55
2024-01-09T06:49:29.907Z,0.55
2024-01-09T06:50:37.129Z,0.58
2024-01-09T06:51:30.849Z,0.58
2024-01-09T06:52:29.838Z,0.59
2024-01-09T06:53:29.918Z,0.62
2024-01-09T06:54:29.883Z,0.68
2024-01-09T06:55:29.869Z,0.76
2024-01-09T06:56:29.987Z,0.79
2024-01-09T06:57:29.973Z,0.81
2024-01-09T06:58:30.035Z,0.85
2024-01-09T06:59:30.148Z,0.87
2024-01-09T07:00:30.196Z,0.90
2024-01-09T07:01:30.276Z,0.93
2024-01-09T07:02:30.309Z,0.98
2024-01-09T07:03:30.419Z,1.00
2024-01-09T07:04:30.530Z,1.04
2024-01-09T07:05:30.566Z,1.12
2024-01-09T07:06:30.642Z,1.14
2024-01-09T07:07:38.327Z,1.22
2024-01-09T07:08:31.590Z,1.22
2024-01-09T07:09:30.602Z,1.24
2024-01-09T07:10:30.604Z,1.28
2024-01-09T07:11:30.579Z,1.36
2024-01-09T07:12:30.568Z,1.52
2024-01-09T07:13:30.568Z,1.57
2024-01-09T07:14:30.705Z,1.68
2024-01-09T07:15:30.747Z,1.72
2024-01-09T07:16:30.564Z,1.75
2024-01-09T07:17:30.733Z,1.82
2024-01-09T07:18:30.829Z,1.92
2024-01-09T07:19:30.667Z,1.96
2024-01-09T07:20:30.645Z,2.10
2024-01-09T07:21:30.613Z,2.11
2024-01-09T07:22:30.594Z,2.19
2024-01-09T07:23:30.648Z,2.28
2024-01-09T07:24:30.683Z,2.37
2024-01-09T07:25:30.597Z,2.43
2024-01-09T07:26:30.654Z,2.46
2024-01-09T07:27:30.619Z,2.54
2024-01-09T07:28:32.610Z,2.56
2024-01-09T07:29:30.641Z,2.70
2024-01-09T07:30:30.664Z,2.80
2024-01-09T07:31:30.574Z,2.77
2024-01-09T07:32:30.681Z,2.93
2024-01-09T07:33:30.796Z,3.02
2024-01-09T07:34:30.635Z,3.13
2024-01-09T07:35:30.590Z,3.16
2024-01-09T07:36:30.631Z,3.25
2024-01-09T07:37:30.638Z,3.32
2024-01-09T07:38:30.739Z,3.33
2024-01-09T07:39:30.712Z,3.46
2024-01-09T07:40:30.742Z,3.49
2024-01-09T07:41:30.777Z,3.51
2024-01-09T07:42:31.660Z,3.58
2024-01-09T07:43:30.836Z,3.65
2024-01-09T07:44:30.925Z,3.62
2024-01-09T07:45:31.460Z,3.68
2024-01-09T07:46:31.005Z,3.74
2024-01-09T07:47:31.157Z,3.83
2024-01-09T07:48:31.241Z,3.75
2024-01-09T07:49:31.147Z,3.76
2024-01-09T07:50:31.199Z,3.86
2024-01-09T07:51:31.294Z,3.87
2024-01-09T07:52:31.279Z,3.89
2024-01-09T07:53:31.345Z,4.07
2024-01-09T07:54:31.410Z,4.22
2024-01-09T07:55:31.484Z,4.18
2024-01-09T07:56:31.574Z,4.18
2024-01-09T07:57:32.310Z,4.34
2024-01-09T07:58:31.663Z,4.34
2024-01-09T07:59:31.779Z,4.45
2024-01-09T08:00:31.848Z,4.52
2024-01-09T08:01:31.857Z,4.57
2024-01-09T08:02:31.997Z,4.70
2024-01-09T08:03:31.978Z,4.94
2024-01-09T08:04:32.035Z,5.06
2024-01-09T08:05:32.151Z,5.13
2024-01-09T08:06:32.204Z,5.29
2024-01-09T08:07:32.173Z,5.26
2024-01-09T08:08:32.233Z,5.23
2024-01-09T08:09:32.296Z,5.42
2024-01-09T08:10:32.389Z,5.45
2024-01-09T08:11:32.374Z,5.53
2024-01-09T08:12:32.408Z,5.50
2024-01-09T08:13:32.461Z,5.66
2024-01-09T08:14:32.512Z,5.63
2024-01-09T08:15:32.545Z,5.85
2024-01-09T08:16:32.636Z,5.87
2024-01-09T08:17:32.669Z,5.85
2024-01-09T08:18:32.752Z,5.88
2024-01-09T08:19:32.721Z,6.05
2024-01-09T08:20:32.752Z,6.20
2024-01-09T08:21:32.766Z,6.52
2024-01-09T08:22:32.789Z,7.18
2024-01-09T08:23:32.899Z,7.39
2024-01-09T08:24:32.872Z,7.34
2024-01-09T08:25:32.853Z,7.59
2024-01-09T08:26:32.934Z,7.64
2024-01-09T08:27:32.904Z,7.76
2024-01-09T08:28:32.940Z,7.89
2024-01-09T08:29:32.965Z,7.72
2024-01-09T08:30:33.896Z,7.86
2024-01-09T08:31:33.027Z,7.79
2024-01-09T08:32:33.567Z,7.70
2024-01-09T08:33:33.267Z,7.97
2024-01-09T08:34:33.335Z,8.01
2024-01-09T08:35:33.288Z,7.87
2024-01-09T08:36:33.189Z,8.02
2024-01-09T08:37:33.213Z,7.92
2024-01-09T08:38:33.335Z,7.76
2024-01-09T08:39:33.330Z,7.04
2024-01-09T08:40:33.401Z,6.90
2024-01-09T08:41:33.526Z,6.42
2024-01-09T08:42:33.573Z,6.05
2024-01-09T08:43:33.509Z,5.38
2024-01-09T08:44:33.567Z,4.94
2024-01-09T08:45:33.508Z,4.19
2024-01-09T08:46:33.490Z,3.65
2024-01-09T08:47:33.594Z,3.36
2024-01-09T08:48:36.334Z,3.10
2024-01-09T08:49:33.561Z,3.00
2024-01-09T08:50:33.557Z,2.80
2024-01-09T08:51:33.553Z,2.71
2024-01-09T08:52:33.525Z,2.60
2024-01-09T08:53:33.619Z,2.49
2024-01-09T08:54:33.567Z,2.43
2024-01-09T08:55:33.553Z,2.39
2024-01-09T08:56:33.731Z,2.33
2024-01-09T08:57:33.548Z,2.26
2024-01-09T08:58:34.220Z,2.20
2024-01-09T08:59:33.623Z,2.21
2024-01-09T09:00:33.554Z,2.20
2024-01-09T09:01:33.560Z,2.14
2024-01-09T09:02:33.585Z,2.14
2024-01-09T09:03:33.572Z,2.07
2024-01-09T09:04:33.534Z,2.01
2024-01-09T09:05:35.708Z,2.00
2024-01-09T09:06:33.614Z,2.00
2024-01-09T09:07:33.557Z,1.98
2024-01-09T09:08:33.590Z,1.90
2024-01-09T09:09:33.555Z,1.88
2024-01-09T09:10:33.584Z,1.85
2024-01-09T09:11:33.616Z,1.86
2024-01-09T09:12:33.574Z,1.83
2024-01-09T09:13:33.582Z,1.82
2024-01-09T09:14:33.625Z,1.79
2024-01-09T09:15:33.581Z,1.75
2024-01-09T09:16:33.570Z,1.76
2024-01-09T09:17:33.649Z,1.72
2024-01-09T09:18:33.720Z,1.70
2024-01-09T09:19:33.603Z,1.72
2024-01-09T09:20:33.607Z,1.69
2024-01-09T09:21:33.594Z,1.67
2024-01-09T09:22:33.592Z,1.65
2024-01-09T09:23:33.649Z,1.66
2024-01-09T09:24:33.555Z,1.65
2024-01-09T09:25:33.558Z,1.62
2024-01-09T09:26:33.649Z,1.62
2024-01-09T09:27:33.586Z,1.62
2024-01-09T09:28:40.872Z,1.61
2024-01-09T09:29:38.047Z,1.61
2024-01-09T09:30:33.733Z,1.61
2024-01-09T09:31:33.664Z,1.61
2024-01-09T09:32:33.689Z,1.61
2024-01-09T09:33:33.689Z,1.59
2024-01-09T09:34:33.655Z,1.56
2024-01-09T09:35:33.616Z,1.60
2024-01-09T09:36:33.623Z,1.54
2024-01-09T09:37:33.672Z,1.52
2024-01-09T09:38:33.747Z,1.53
2024-01-09T09:39:33.784Z,1.54
2024-01-09T09:40:34.054Z,1.50
2024-01-09T09:41:33.860Z,1.49
2024-01-09T09:42:33.863Z,1.50
2024-01-09T09:43:33.921Z,1.51
2024-01-09T09:44:33.949Z,1.51
2024-01-09T09:45:33.972Z,1.50
2024-01-09T09:46:34.010Z,1.52
2024-01-09T09:47:34.140Z,1.52
2024-01-09T09:48:34.326Z,1.51
2024-01-09T09:49:34.155Z,1.52
2024-01-09T09:50:34.141Z,1.56
2024-01-09T09:51:34.168Z,1.55
2024-01-09T09:52:34.201Z,1.55
2024-01-09T09:53:34.288Z,1.58
2024-01-09T09:54:34.272Z,1.56
2024-01-09T09:55:34.261Z,1.55
2024-01-09T09:56:34.353Z,1.53
2024-01-09T09:57:34.321Z,1.53
2024-01-09T09:58:34.286Z,1.51
2024-01-09T09:59:34.369Z,1.51
2024-01-09T10:00:34.359Z,1.52
2024-01-09T10:01:34.334Z,1.52
2024-01-09T10:02:34.413Z,1.52
2024-01-09T10:03:34.490Z,1.52
2024-01-09T10:04:34.462Z,1.57
2024-01-09T10:05:34.578Z,1.59
2024-01-09T10:06:34.680Z,1.56
2024-01-09T10:07:34.652Z,1.60
2024-01-09T10:08:34.761Z,1.60
2024-01-09T10:09:34.797Z,1.61
2024-01-09T10:10:34.881Z,1.61
2024-01-09T10:11:34.969Z,1.62
2024-01-09T10:12:34.979Z,1.67
2024-01-09T10:13:35.077Z,1.66
2024-01-09T10:14:35.170Z,1.68
2024-01-09T10:15:35.148Z,1.66
2024-01-09T10:16:35.244Z,1.68
2024-01-09T10:17:35.341Z,1.70
2024-01-09T10:18:35.585Z,1.73
2024-01-09T10:19:35.425Z,1.72
2024-01-09T10:20:35.422Z,1.75
2024-01-09T10:21:35.501Z,1.78
2024-01-09T10:22:35.567Z,1.82
2024-01-09T10:23:35.583Z,1.88
2024-01-09T10:24:35.599Z,1.88
2024-01-09T10:25:35.654Z,1.94
2024-01-09T10:26:35.659Z,1.92
2024-01-09T10:27:35.683Z,1.93
2024-01-09T10:28:35.741Z,1.95
2024-01-09T10:29:35.851Z,1.97
2024-01-09T10:30:35.952Z,1.99
2024-01-09T10:31:35.862Z,2.00
2024-01-09T10:32:35.885Z,2.00
2024-01-09T10:33:36.103Z,2.01
2024-01-09T10:34:35.986Z,2.01
2024-01-09T10:35:36.013Z,2.16
2024-01-09T10:36:36.017Z,2.11
2024-01-09T10:37:36.032Z,2.16
2024-01-09T10:38:36.116Z,2.20
2024-01-09T10:39:36.093Z,2.19
2024-01-09T10:40:36.117Z,2.25
2024-01-09T10:41:36.203Z,2.32
2024-01-09T10:42:36.188Z,2.31
2024-01-09T10:43:36.224Z,2.35
2024-01-09T10:44:36.279Z,2.37
2024-01-09T10:45:36.252Z,2.27
2024-01-09T10:46:36.297Z,2.30
2024-01-09T10:47:36.355Z,2.27
2024-01-09T10:48:36.557Z,2.28
2024-01-09T10:49:36.390Z,2.15
2024-01-09T10:50:36.447Z,2.18
2024-01-09T10:51:36.410Z,2.14
2024-01-09T10:52:36.449Z,2.22
2024-01-09T10:53:36.510Z,2.20
2024-01-09T10:54:36.418Z,2.15
2024-01-09T10:55:36.449Z,2.21
2024-01-09T10:56:36.566Z,2.14
2024-01-09T10:57:36.473Z,2.23
2024-01-09T10:58:36.484Z,2.21
2024-01-09T10:59:36.516Z,2.25
2024-01-09T11:00:36.459Z,2.28
2024-01-09T11:01:36.502Z,2.23
2024-01-09T11:02:36.629Z,2.35
2024-01-09T11:03:36.592Z,2.33
2024-01-09T11:04:36.549Z,2.36
2024-01-09T11:05:36.702Z,2.42
2024-01-09T11:06:36.780Z,2.41
2024-01-09T11:07:36.530Z,2.44
2024-01-09T11:08:36.581Z,2.60
2024-01-09T11:09:36.534Z,2.53
2024-01-09T11:10:36.529Z,2.55
2024-01-09T11:11:36.601Z,2.58
2024-01-09T11:12:36.580Z,2.60
2024-01-09T11:13:36.596Z,2.63
2024-01-09T11:14:36.651Z,2.58
2024-01-09T11:15:36.611Z,2.60
2024-01-09T11:16:36.645Z,2.57
2024-01-09T11:17:36.758Z,2.61
2024-01-09T11:18:36.773Z,2.64
2024-01-09T11:19:36.733Z,2.68
2024-01-09T11:20:36.758Z,2.66
2024-01-09T11:21:36.776Z,2.68
2024-01-09T11:22:36.869Z,2.69
2024-01-09T11:23:36.916Z,2.74
2024-01-09T11:24:36.998Z,2.76
2024-01-09T11:25:37.023Z,2.82
2024-01-09T11:26:37.117Z,2.88
2024-01-09T11:27:37.236Z,2.90
2024-01-09T11:28:37.238Z,2.94
2024-01-09T11:29:37.337Z,2.95
2024-01-09T11:30:39.057Z,3.01
2024-01-09T11:31:37.422Z,3.15
2024-01-09T11:32:37.509Z,3.13
2024-01-09T11:33:37.766Z,3.25
2024-01-09T11:34:37.615Z,3.25
2024-01-09T11:35:37.634Z,3.31
2024-01-09T11:36:41.519Z,5.00
2024-01-09T11:37:37.817Z,5.02
2024-01-09T11:38:37.907Z,5.07
2024-01-09T11:39:37.896Z,5.07
2024-01-09T11:40:37.968Z,5.06
2024-01-09T11:41:38.195Z,4.88
2024-01-09T11:42:39.561Z,4.72
2024-01-09T11:43:38.084Z,4.56
2024-01-09T11:44:38.097Z,4.43
2024-01-09T11:45:38.099Z,4.26
2024-01-09T11:46:38.296Z,4.12
2024-01-09T11:47:38.263Z,4.05
2024-01-09T11:48:38.274Z,3.90
2024-01-09T11:49:38.204Z,3.88
2024-01-09T11:50:38.143Z,3.76
2024-01-09T11:51:38.098Z,3.70
2024-01-09T11:52:38.123Z,3.69
2024-01-09T11:53:38.118Z,3.61
2024-01-09T11:54:38.918Z,3.59
2024-01-09T11:55:38.088Z,3.58
2024-01-09T11:56:38.234Z,3.46
2024-01-09T11:57:38.110Z,3.43
2024-01-09T11:58:38.122Z,3.44
2024-01-09T11:59:38.192Z,3.34
2024-01-09T12:00:38.169Z,3.43
2024-01-09T12:01:38.121Z,3.26
2024-01-09T12:02:38.157Z,3.25
2024-01-09T12:03:38.106Z,3.22
2024-01-09T12:04:38.144Z,3.19
2024-01-09T12:05:38.219Z,3.17
2024-01-09T12:06:38.986Z,3.15
2024-01-09T12:07:38.158Z,3.12
2024-01-09T12:08:38.163Z,3.07
2024-01-09T12:09:38.132Z,3.06
2024-01-09T12:10:38.150Z,3.00
2024-01-09T12:11:38.172Z,2.92
2024-01-09T12:12:38.116Z,3.00
2024-01-09T12:13:38.162Z,2.90
2024-01-09T12:14:38.161Z,2.87
2024-01-09T12:15:38.112Z,2.78
2024-01-09T12:16:38.178Z,2.74
2024-01-09T12:17:38.217Z,2.85
2024-01-09T12:18:38.789Z,2.76
2024-01-09T12:19:38.163Z,2.66
2024-01-09T12:20:38.208Z,2.71
2024-01-09T12:21:38.152Z,2.70
2024-01-09T12:22:38.190Z,2.59
2024-01-09T12:23:55.768Z,2.65
2024-01-09T12:24:39.254Z,2.58
2024-01-09T12:25:38.231Z,2.57
2024-01-09T12:26:38.364Z,2.50
2024-01-09T12:27:38.215Z,2.55
2024-01-09T12:28:38.210Z,2.48
2024-01-09T12:29:38.282Z,2.49
2024-01-09T12:30:38.346Z,2.36
2024-01-09T12:31:38.246Z,2.37
2024-01-09T12:32:38.278Z,2.32
2024-01-09T12:33:38.339Z,2.34
2024-01-09T12:34:38.258Z,2.23
2024-01-09T12:35:38.236Z,2.24
2024-01-09T12:36:38.251Z,2.21
2024-01-09T12:37:38.228Z,2.14
2024-01-09T12:38:38.261Z,2.11
2024-01-09T12:39:38.189Z,2.16
2024-01-09T12:40:38.232Z,2.13
2024-01-09T12:41:38.270Z,2.04
2024-01-09T12:42:38.483Z,2.01
2024-01-09T12:43:38.308Z,1.97
2024-01-09T12:44:38.415Z,1.95
2024-01-09T12:45:38.389Z,1.96
2024-01-09T12:46:38.432Z,1.83
2024-01-09T12:47:38.537Z,1.82
2024-01-09T12:48:38.671Z,1.80
2024-01-09T12:49:44.425Z,1.74
2024-01-09T12:50:39.725Z,1.74
2024-01-09T12:51:38.540Z,1.74
2024-01-09T12:52:38.692Z,1.68
2024-01-09T12:53:38.542Z,1.66
2024-01-09T12:54:38.524Z,1.64
2024-01-09T12:55:38.516Z,1.61
2024-01-09T12:56:38.557Z,1.59
2024-01-09T12:57:38.564Z,1.59
2024-01-09T12:58:38.530Z,1.55
2024-01-09T12:59:38.580Z,1.53
2024-01-09T13:00:38.581Z,1.51
2024-01-09T13:01:38.539Z,1.50
2024-01-09T13:02:38.610Z,1.49
2024-01-09T13:03:38.623Z,1.49
2024-01-09T13:04:38.522Z,1.46
2024-01-09T13:05:38.728Z,1.46
2024-01-09T13:06:42.337Z,1.44
2024-01-09T13:07:39.549Z,1.44
2024-01-09T13:08:38.568Z,1.44
2024-01-09T13:09:38.542Z,1.42
2024-01-09T13:10:38.573Z,1.41
2024-01-09T13:11:38.549Z,1.43
2024-01-09T13:12:38.574Z,1.41
2024-01-09T13:13:38.579Z,1.38
2024-01-09T13:14:38.558Z,1.38
2024-01-09T13:15:38.584Z,1.26
2024-01-09T13:16:38.573Z,1.16
2024-01-09T13:17:38.659Z,1.16
2024-01-09T13:18:39.546Z,1.25